sensor_id;sensor_type;location;lat;lon;timestamp;temperature;humidity
38788;DHT22;24536;45.488;12.238;2023-03-14T00:01:07;14.80;84.90
38788;DHT22;24536;45.488;12.238;2023-03-14T00:03:33;14.80;85.20
38788;DHT22;24536;45.488;12.238;2023-03-14T00:06:02;14.80;85.20
38788;DHT22;24536;45.488;12.238;2023-03-14T00:08:28;14.90;85.30
38788;DHT22;24536;45.488;12.238;2023-03-14T00:10:53;14.80;86.00
38788;DHT22;24536;45.488;12.238;2023-03-14T00:13:19;14.70;87.30
38788;DHT22;24536;45.488;12.238;2023-03-14T00:15:45;14.70;87.20
38788;DHT22;24536;45.488;12.238;2023-03-14T00:18:10;14.60;88.30
38788;DHT22;24536;45.488;12.238;2023-03-14T00:20:36;14.60;87.40
38788;DHT22;24536;45.488;12.238;2023-03-14T00:23:01;14.60;87.10
38788;DHT22;24536;45.488;12.238;2023-03-14T00:25:28;14.60;87.50
38788;DHT22;24536;45.488;12.238;2023-03-14T00:27:53;14.70;87.60
38788;DHT22;24536;45.488;12.238;2023-03-14T00:30:19;14.70;87.70
38788;DHT22;24536;45.488;12.238;2023-03-14T00:32:45;14.70;87.80
38788;DHT22;24536;45.488;12.238;2023-03-14T00:35:10;14.70;87.90
38788;DHT22;24536;45.488;12.238;2023-03-14T00:37:36;14.70;87.90
38788;DHT22;24536;45.488;12.238;2023-03-14T00:40:02;14.80;88.10
38788;DHT22;24536;45.488;12.238;2023-03-14T00:42:31;14.70;88.20
38788;DHT22;24536;45.488;12.238;2023-03-14T00:44:57;14.70;88.50
38788;DHT22;24536;45.488;12.238;2023-03-14T00:47:23;14.60;89.00
38788;DHT22;24536;45.488;12.238;2023-03-14T00:49:48;14.60;88.80
38788;DHT22;24536;45.488;12.238;2023-03-14T00:52:14;14.50;89.20
38788;DHT22;24536;45.488;12.238;2023-03-14T00:54:40;14.50;89.10
38788;DHT22;24536;45.488;12.238;2023-03-14T00:57:05;15.30;90.10
38788;DHT22;24536;45.488;12.238;2023-03-14T00:59:31;14.40;89.60
38788;DHT22;24536;45.488;12.238;2023-03-14T01:01:57;14.40;89.70
38788;DHT22;24536;45.488;12.238;2023-03-14T01:04:22;14.50;90.00
38788;DHT22;24536;45.488;12.238;2023-03-14T01:06:48;14.50;90.00
38788;DHT22;24536;45.488;12.238;2023-03-14T01:09:14;14.50;90.00
38788;DHT22;24536;45.488;12.238;2023-03-14T01:11:39;14.60;90.00
38788;DHT22;24536;45.488;12.238;2023-03-14T01:14:05;14.60;89.80
38788;DHT22;24536;45.488;12.238;2023-03-14T01:16:33;14.60;90.00
38788;DHT22;24536;45.488;12.238;2023-03-14T01:18:59;14.60;90.00
38788;DHT22;24536;45.488;12.238;2023-03-14T01:21:30;14.60;90.00
38788;DHT22;24536;45.488;12.238;2023-03-14T01:23:57;14.60;90.10
38788;DHT22;24536;45.488;12.238;2023-03-14T01:26:25;14.60;90.10
38788;DHT22;24536;45.488;12.238;2023-03-14T01:28:53;14.60;90.20
38788;DHT22;24536;45.488;12.238;2023-03-14T01:31:19;14.50;90.20
38788;DHT22;24536;45.488;12.238;2023-03-14T01:33:45;14.50;90.10
38788;DHT22;24536;45.488;12.238;2023-03-14T01:36:12;14.50;90.10
38788;DHT22;24536;45.488;12.238;2023-03-14T01:38:38;14.50;90.10
38788;DHT22;24536;45.488;12.238;2023-03-14T01:41:05;14.50;90.10
38788;DHT22;24536;45.488;12.238;2023-03-14T01:43:31;14.60;90.20
38788;DHT22;24536;45.488;12.238;2023-03-14T01:48:39;14.60;90.20
38788;DHT22;24536;45.488;12.238;2023-03-14T01:51:09;14.60;90.20
38788;DHT22;24536;45.488;12.238;2023-03-14T01:53:37;14.60;90.10
38788;DHT22;24536;45.488;12.238;2023-03-14T01:56:05;14.60;90.10
38788;DHT22;24536;45.488;12.238;2023-03-14T01:58:33;14.50;90.20
38788;DHT22;24536;45.488;12.238;2023-03-14T02:01:03;14.50;90.10
38788;DHT22;24536;45.488;12.238;2023-03-14T02:03:31;14.50;90.20
38788;DHT22;24536;45.488;12.238;2023-03-14T02:06:04;14.50;90.30
38788;DHT22;24536;45.488;12.238;2023-03-14T02:08:31;14.40;90.30
38788;DHT22;24536;45.488;12.238;2023-03-14T02:10:58;14.50;90.20
38788;DHT22;24536;45.488;12.238;2023-03-14T02:13:24;14.40;90.50
38788;DHT22;24536;45.488;12.238;2023-03-14T02:15:50;14.50;90.20
38788;DHT22;24536;45.488;12.238;2023-03-14T02:18:16;14.50;90.30
38788;DHT22;24536;45.488;12.238;2023-03-14T02:23:31;14.50;90.20
38788;DHT22;24536;45.488;12.238;2023-03-14T02:26:09;14.50;90.20
38788;DHT22;24536;45.488;12.238;2023-03-14T02:28:36;14.50;90.10
38788;DHT22;24536;45.488;12.238;2023-03-14T02:31:02;14.50;90.20
38788;DHT22;24536;45.488;12.238;2023-03-14T02:33:28;14.50;90.20
38788;DHT22;24536;45.488;12.238;2023-03-14T02:35:59;14.50;90.20
38788;DHT22;24536;45.488;12.238;2023-03-14T02:38:55;14.50;90.20
38788;DHT22;24536;45.488;12.238;2023-03-14T02:41:21;14.50;90.30
38788;DHT22;24536;45.488;12.238;2023-03-14T02:43:47;14.50;90.20
38788;DHT22;24536;45.488;12.238;2023-03-14T02:46:16;14.50;90.20
38788;DHT22;24536;45.488;12.238;2023-03-14T02:49:07;14.50;90.20
38788;DHT22;24536;45.488;12.238;2023-03-14T02:51:33;14.40;90.40
38788;DHT22;24536;45.488;12.238;2023-03-14T02:54:00;14.40;90.20
38788;DHT22;24536;45.488;12.238;2023-03-14T02:56:25;14.40;90.30
38788;DHT22;24536;45.488;12.238;2023-03-14T02:58:51;14.40;90.30
38788;DHT22;24536;45.488;12.238;2023-03-14T03:01:17;14.40;90.30
38788;DHT22;24536;45.488;12.238;2023-03-14T03:03:42;14.40;90.30
38788;DHT22;24536;45.488;12.238;2023-03-14T03:06:08;14.50;90.30
38788;DHT22;24536;45.488;12.238;2023-03-14T03:08:34;14.50;90.30
38788;DHT22;24536;45.488;12.238;2023-03-14T03:11:00;14.50;90.30
38788;DHT22;24536;45.488;12.238;2023-03-14T03:13:25;14.50;90.30
38788;DHT22;24536;45.488;12.238;2023-03-14T03:15:52;14.50;90.40
38788;DHT22;24536;45.488;12.238;2023-03-14T03:18:18;14.50;90.40
38788;DHT22;24536;45.488;12.238;2023-03-14T03:20:44;14.40;90.40
38788;DHT22;24536;45.488;12.238;2023-03-14T03:23:09;14.40;90.40
38788;DHT22;24536;45.488;12.238;2023-03-14T03:25:35;14.40;90.60
38788;DHT22;24536;45.488;12.238;2023-03-14T03:28:01;14.40;90.50
38788;DHT22;24536;45.488;12.238;2023-03-14T03:30:27;14.40;90.60
38788;DHT22;24536;45.488;12.238;2023-03-14T03:32:53;14.40;90.50
38788;DHT22;24536;45.488;12.238;2023-03-14T03:35:18;14.40;90.60
38788;DHT22;24536;45.488;12.238;2023-03-14T03:37:44;14.40;90.50
38788;DHT22;24536;45.488;12.238;2023-03-14T03:40:10;14.40;90.30
38788;DHT22;24536;45.488;12.238;2023-03-14T03:42:36;14.40;90.50
38788;DHT22;24536;45.488;12.238;2023-03-14T03:45:02;14.40;90.50
38788;DHT22;24536;45.488;12.238;2023-03-14T03:47:30;14.50;90.60
38788;DHT22;24536;45.488;12.238;2023-03-14T03:49:56;14.40;90.60
38788;DHT22;24536;45.488;12.238;2023-03-14T03:52:21;14.40;90.50
38788;DHT22;24536;45.488;12.238;2023-03-14T03:54:47;14.40;90.60
38788;DHT22;24536;45.488;12.238;2023-03-14T03:57:13;14.40;90.60
38788;DHT22;24536;45.488;12.238;2023-03-14T03:59:38;14.40;90.60
38788;DHT22;24536;45.488;12.238;2023-03-14T04:02:06;14.40;90.70
38788;DHT22;24536;45.488;12.238;2023-03-14T04:04:31;14.40;90.70
38788;DHT22;24536;45.488;12.238;2023-03-14T04:06:57;14.40;90.70
38788;DHT22;24536;45.488;12.238;2023-03-14T04:09:23;14.40;90.70
38788;DHT22;24536;45.488;12.238;2023-03-14T04:11:48;14.40;90.70
38788;DHT22;24536;45.488;12.238;2023-03-14T04:14:14;14.40;90.70
38788;DHT22;24536;45.488;12.238;2023-03-14T04:16:40;14.40;90.50
38788;DHT22;24536;45.488;12.238;2023-03-14T04:19:05;14.30;90.60
38788;DHT22;24536;45.488;12.238;2023-03-14T04:21:31;14.30;90.80
38788;DHT22;24536;45.488;12.238;2023-03-14T04:23:57;14.30;90.80
38788;DHT22;24536;45.488;12.238;2023-03-14T04:26:22;14.20;90.90
38788;DHT22;24536;45.488;12.238;2023-03-14T04:28:48;14.30;90.90
38788;DHT22;24536;45.488;12.238;2023-03-14T04:31:16;14.20;90.90
38788;DHT22;24536;45.488;12.238;2023-03-14T04:33:43;14.20;90.90
38788;DHT22;24536;45.488;12.238;2023-03-14T04:36:09;14.20;90.90
38788;DHT22;24536;45.488;12.238;2023-03-14T04:38:35;14.20;91.00
38788;DHT22;24536;45.488;12.238;2023-03-14T04:41:01;14.20;90.90
38788;DHT22;24536;45.488;12.238;2023-03-14T04:43:27;14.20;91.00
38788;DHT22;24536;45.488;12.238;2023-03-14T04:45:54;14.20;91.00
38788;DHT22;24536;45.488;12.238;2023-03-14T04:48:20;14.20;90.90
38788;DHT22;24536;45.488;12.238;2023-03-14T04:50:49;14.20;91.00
38788;DHT22;24536;45.488;12.238;2023-03-14T04:53:16;14.20;91.00
38788;DHT22;24536;45.488;12.238;2023-03-14T04:55:41;14.20;90.90
38788;DHT22;24536;45.488;12.238;2023-03-14T04:58:07;14.10;91.20
38788;DHT22;24536;45.488;12.238;2023-03-14T05:00:33;14.10;91.00
38788;DHT22;24536;45.488;12.238;2023-03-14T05:02:59;14.10;91.00
38788;DHT22;24536;45.488;12.238;2023-03-14T05:05:25;14.00;91.30
38788;DHT22;24536;45.488;12.238;2023-03-14T05:07:50;14.00;91.10
38788;DHT22;24536;45.488;12.238;2023-03-14T05:10:16;14.00;91.20
38788;DHT22;24536;45.488;12.238;2023-03-14T05:12:42;14.10;91.20
38788;DHT22;24536;45.488;12.238;2023-03-14T05:15:08;14.00;91.20
38788;DHT22;24536;45.488;12.238;2023-03-14T05:17:34;14.00;91.20
38788;DHT22;24536;45.488;12.238;2023-03-14T05:22:26;14.00;91.00
38788;DHT22;24536;45.488;12.238;2023-03-14T05:24:52;14.00;91.20
38788;DHT22;24536;45.488;12.238;2023-03-14T05:27:22;14.00;91.30
38788;DHT22;24536;45.488;12.238;2023-03-14T05:29:48;14.00;91.20
38788;DHT22;24536;45.488;12.238;2023-03-14T05:34:39;14.00;91.10
38788;DHT22;24536;45.488;12.238;2023-03-14T05:37:05;14.00;91.30
38788;DHT22;24536;45.488;12.238;2023-03-14T05:39:31;14.00;91.20
38788;DHT22;24536;45.488;12.238;2023-03-14T05:41:56;14.00;91.30
38788;DHT22;24536;45.488;12.238;2023-03-14T05:46:48;14.00;91.30
38788;DHT22;24536;45.488;12.238;2023-03-14T05:49:14;13.90;91.40
38788;DHT22;24536;45.488;12.238;2023-03-14T05:51:39;13.90;91.50
38788;DHT22;24536;45.488;12.238;2023-03-14T05:54:05;13.80;91.70
38788;DHT22;24536;45.488;12.238;2023-03-14T05:56:32;13.80;91.30
38788;DHT22;24536;45.488;12.238;2023-03-14T05:58:57;13.80;91.70
38788;DHT22;24536;45.488;12.238;2023-03-14T06:01:23;13.80;91.60
38788;DHT22;24536;45.488;12.238;2023-03-14T06:03:49;13.70;91.30
38788;DHT22;24536;45.488;12.238;2023-03-14T06:06:14;13.80;91.60
38788;DHT22;24536;45.488;12.238;2023-03-14T06:08:42;13.80;91.70
38788;DHT22;24536;45.488;12.238;2023-03-14T06:11:07;13.80;91.90
38788;DHT22;24536;45.488;12.238;2023-03-14T06:13:33;13.80;91.90
38788;DHT22;24536;45.488;12.238;2023-03-14T06:15:59;13.80;91.70
38788;DHT22;24536;45.488;12.238;2023-03-14T06:18:25;13.80;91.80
38788;DHT22;24536;45.488;12.238;2023-03-14T06:20:53;13.80;91.90
38788;DHT22;24536;45.488;12.238;2023-03-14T06:23:19;13.80;91.90
38788;DHT22;24536;45.488;12.238;2023-03-14T06:25:45;13.70;92.00
38788;DHT22;24536;45.488;12.238;2023-03-14T06:28:10;13.70;92.00
38788;DHT22;24536;45.488;12.238;2023-03-14T06:30:36;13.70;92.20
38788;DHT22;24536;45.488;12.238;2023-03-14T06:33:02;13.80;92.10
38788;DHT22;24536;45.488;12.238;2023-03-14T06:35:27;13.80;92.00
38788;DHT22;24536;45.488;12.238;2023-03-14T06:37:53;13.80;92.10
38788;DHT22;24536;45.488;12.238;2023-03-14T06:40:19;13.80;92.10
38788;DHT22;24536;45.488;12.238;2023-03-14T06:42:45;13.90;92.00
38788;DHT22;24536;45.488;12.238;2023-03-14T06:45:11;13.90;92.00
38788;DHT22;24536;45.488;12.238;2023-03-14T06:47:36;14.00;91.90
38788;DHT22;24536;45.488;12.238;2023-03-14T06:50:05;14.00;91.80
38788;DHT22;24536;45.488;12.238;2023-03-14T06:52:31;14.00;91.80
38788;DHT22;24536;45.488;12.238;2023-03-14T06:54:56;14.10;91.80
38788;DHT22;24536;45.488;12.238;2023-03-14T06:57:22;14.10;91.70
38788;DHT22;24536;45.488;12.238;2023-03-14T06:59:47;14.10;91.60
38788;DHT22;24536;45.488;12.238;2023-03-14T07:02:13;14.10;91.60
38788;DHT22;24536;45.488;12.238;2023-03-14T07:04:39;14.10;91.70
38788;DHT22;24536;45.488;12.238;2023-03-14T07:07:05;14.00;91.80
38788;DHT22;24536;45.488;12.238;2023-03-14T07:09:31;13.90;91.90
38788;DHT22;24536;45.488;12.238;2023-03-14T07:11:57;13.70;92.20
38788;DHT22;24536;45.488;12.238;2023-03-14T07:14:23;13.60;92.60
38788;DHT22;24536;45.488;12.238;2023-03-14T07:16:49;13.60;92.50
38788;DHT22;24536;45.488;12.238;2023-03-14T07:19:14;13.50;92.70
38788;DHT22;24536;45.488;12.238;2023-03-14T07:21:40;13.40;92.90
38788;DHT22;24536;45.488;12.238;2023-03-14T07:24:06;13.40;92.80
38788;DHT22;24536;45.488;12.238;2023-03-14T07:26:31;13.40;93.50
38788;DHT22;24536;45.488;12.238;2023-03-14T07:28:57;13.30;93.60
38788;DHT22;24536;45.488;12.238;2023-03-14T07:31:23;13.30;93.80
38788;DHT22;24536;45.488;12.238;2023-03-14T07:33:49;13.30;93.80
38788;DHT22;24536;45.488;12.238;2023-03-14T07:36:15;13.40;93.70
38788;DHT22;24536;45.488;12.238;2023-03-14T07:38:40;13.40;93.80
38788;DHT22;24536;45.488;12.238;2023-03-14T07:41:06;13.50;93.40
38788;DHT22;24536;45.488;12.238;2023-03-14T07:43:32;13.50;93.70
38788;DHT22;24536;45.488;12.238;2023-03-14T07:45:58;13.40;93.80
38788;DHT22;24536;45.488;12.238;2023-03-14T07:48:24;13.30;94.20
38788;DHT22;24536;45.488;12.238;2023-03-14T07:50:52;13.40;93.80
38788;DHT22;24536;45.488;12.238;2023-03-14T07:53:18;13.50;93.70
38788;DHT22;24536;45.488;12.238;2023-03-14T07:55:45;13.60;93.60
38788;DHT22;24536;45.488;12.238;2023-03-14T07:58:11;13.70;93.70
38788;DHT22;24536;45.488;12.238;2023-03-14T08:00:36;13.70;93.70
38788;DHT22;24536;45.488;12.238;2023-03-14T08:05:29;13.80;93.30
38788;DHT22;24536;45.488;12.238;2023-03-14T08:07:54;13.80;93.60
38788;DHT22;24536;45.488;12.238;2023-03-14T08:10:20;13.90;93.50
38788;DHT22;24536;45.488;12.238;2023-03-14T08:12:50;14.00;93.50
38788;DHT22;24536;45.488;12.238;2023-03-14T08:15:16;14.00;93.60
38788;DHT22;24536;45.488;12.238;2023-03-14T08:17:42;14.00;93.50
38788;DHT22;24536;45.488;12.238;2023-03-14T08:20:08;14.00;93.30
38788;DHT22;24536;45.488;12.238;2023-03-14T08:22:36;14.10;93.40
38788;DHT22;24536;45.488;12.238;2023-03-14T08:25:02;14.00;93.40
38788;DHT22;24536;45.488;12.238;2023-03-14T08:27:28;14.80;94.00
38788;DHT22;24536;45.488;12.238;2023-03-14T08:29:54;13.90;93.60
38788;DHT22;24536;45.488;12.238;2023-03-14T08:32:19;14.00;93.50
38788;DHT22;24536;45.488;12.238;2023-03-14T08:34:45;14.00;93.80
38788;DHT22;24536;45.488;12.238;2023-03-14T08:37:11;14.00;93.60
38788;DHT22;24536;45.488;12.238;2023-03-14T08:39:37;14.10;93.50
38788;DHT22;24536;45.488;12.238;2023-03-14T08:42:03;14.10;93.50
38788;DHT22;24536;45.488;12.238;2023-03-14T08:44:28;14.10;93.50
38788;DHT22;24536;45.488;12.238;2023-03-14T08:46:55;14.20;93.40
38788;DHT22;24536;45.488;12.238;2023-03-14T08:49:21;14.20;93.40
38788;DHT22;24536;45.488;12.238;2023-03-14T08:51:46;14.20;93.40
38788;DHT22;24536;45.488;12.238;2023-03-14T08:54:12;14.20;93.70
38788;DHT22;24536;45.488;12.238;2023-03-14T08:56:38;14.30;93.50
38788;DHT22;24536;45.488;12.238;2023-03-14T08:59:04;14.30;93.40
38788;DHT22;24536;45.488;12.238;2023-03-14T09:01:30;14.20;93.30
38788;DHT22;24536;45.488;12.238;2023-03-14T09:03:56;14.20;93.30
38788;DHT22;24536;45.488;12.238;2023-03-14T09:06:22;14.20;93.50
38788;DHT22;24536;45.488;12.238;2023-03-14T09:08:47;14.20;93.20
38788;DHT22;24536;45.488;12.238;2023-03-14T09:11:13;14.20;93.40
38788;DHT22;24536;45.488;12.238;2023-03-14T09:13:39;14.20;93.30
38788;DHT22;24536;45.488;12.238;2023-03-14T09:16:06;14.30;93.50
38788;DHT22;24536;45.488;12.238;2023-03-14T09:18:32;14.30;93.50
38788;DHT22;24536;45.488;12.238;2023-03-14T09:20:58;14.40;93.20
38788;DHT22;24536;45.488;12.238;2023-03-14T09:23:23;14.30;93.40
38788;DHT22;24536;45.488;12.238;2023-03-14T09:25:54;14.40;93.40
38788;DHT22;24536;45.488;12.238;2023-03-14T09:28:19;14.40;93.30
38788;DHT22;24536;45.488;12.238;2023-03-14T09:30:45;14.40;93.30
38788;DHT22;24536;45.488;12.238;2023-03-14T09:33:11;14.40;93.30
38788;DHT22;24536;45.488;12.238;2023-03-14T09:35:36;14.50;93.20
38788;DHT22;24536;45.488;12.238;2023-03-14T09:38:02;14.40;93.30
38788;DHT22;24536;45.488;12.238;2023-03-14T09:40:33;14.40;93.20
38788;DHT22;24536;45.488;12.238;2023-03-14T09:42:59;14.40;93.30
38788;DHT22;24536;45.488;12.238;2023-03-14T09:45:34;14.40;93.30
38788;DHT22;24536;45.488;12.238;2023-03-14T09:48:02;14.40;93.30
38788;DHT22;24536;45.488;12.238;2023-03-14T09:50:48;14.40;93.30
38788;DHT22;24536;45.488;12.238;2023-03-14T09:53:19;14.50;93.40
38788;DHT22;24536;45.488;12.238;2023-03-14T09:55:48;14.50;93.40
38788;DHT22;24536;45.488;12.238;2023-03-14T09:58:19;14.50;93.30
38788;DHT22;24536;45.488;12.238;2023-03-14T10:00:45;14.60;93.30
38788;DHT22;24536;45.488;12.238;2023-03-14T10:05:37;14.70;93.20
38788;DHT22;24536;45.488;12.238;2023-03-14T10:08:03;14.60;93.20
38788;DHT22;24536;45.488;12.238;2023-03-14T10:10:28;14.60;93.10
38788;DHT22;24536;45.488;12.238;2023-03-14T10:12:57;14.50;93.30
38788;DHT22;24536;45.488;12.238;2023-03-14T10:15:26;14.50;93.40
38788;DHT22;24536;45.488;12.238;2023-03-14T10:17:52;14.50;93.30
38788;DHT22;24536;45.488;12.238;2023-03-14T10:23:04;14.60;93.20
38788;DHT22;24536;45.488;12.238;2023-03-14T10:25:36;14.60;93.20
38788;DHT22;24536;45.488;12.238;2023-03-14T10:28:04;14.60;93.20
38788;DHT22;24536;45.488;12.238;2023-03-14T10:30:48;14.60;93.20
38788;DHT22;24536;45.488;12.238;2023-03-14T10:33:27;14.50;93.30
38788;DHT22;24536;45.488;12.238;2023-03-14T10:36:05;14.40;93.60
38788;DHT22;24536;45.488;12.238;2023-03-14T10:38:34;14.20;93.90
38788;DHT22;24536;45.488;12.238;2023-03-14T10:41:01;14.20;94.10
38788;DHT22;24536;45.488;12.238;2023-03-14T10:43:35;14.30;93.90
38788;DHT22;24536;45.488;12.238;2023-03-14T10:46:17;14.30;93.80
38788;DHT22;24536;45.488;12.238;2023-03-14T10:48:43;14.30;94.00
38788;DHT22;24536;45.488;12.238;2023-03-14T10:53:58;14.30;94.00
38788;DHT22;24536;45.488;12.238;2023-03-14T10:56:25;14.20;94.20
38788;DHT22;24536;45.488;12.238;2023-03-14T10:58:54;14.20;94.40
38788;DHT22;24536;45.488;12.238;2023-03-14T11:02:03;14.20;94.40
38788;DHT22;24536;45.488;12.238;2023-03-14T11:04:55;14.10;94.50
38788;DHT22;24536;45.488;12.238;2023-03-14T11:07:33;14.20;94.30
38788;DHT22;24536;45.488;12.238;2023-03-14T11:13:13;14.30;94.10
38788;DHT22;24536;45.488;12.238;2023-03-14T11:15:50;14.50;94.00
38788;DHT22;24536;45.488;12.238;2023-03-14T11:21:13;14.50;93.80
38788;DHT22;24536;45.488;12.238;2023-03-14T11:24:16;14.50;94.00
38788;DHT22;24536;45.488;12.238;2023-03-14T11:29:53;14.40;93.80
38788;DHT22;24536;45.488;12.238;2023-03-14T11:32:50;14.40;93.80
38788;DHT22;24536;45.488;12.238;2023-03-14T11:35:24;14.40;93.80
38788;DHT22;24536;45.488;12.238;2023-03-14T11:40:44;14.10;94.30
38788;DHT22;24536;45.488;12.238;2023-03-14T11:43:17;14.10;94.20
38788;DHT22;24536;45.488;12.238;2023-03-14T11:45:47;14.10;94.00
38788;DHT22;24536;45.488;12.238;2023-03-14T11:48:37;14.30;94.00
38788;DHT22;24536;45.488;12.238;2023-03-14T11:51:08;14.40;93.70
38788;DHT22;24536;45.488;12.238;2023-03-14T11:53:48;14.40;93.60
38788;DHT22;24536;45.488;12.238;2023-03-14T11:56:54;14.40;93.60
38788;DHT22;24536;45.488;12.238;2023-03-14T11:59:33;14.40;93.50
38788;DHT22;24536;45.488;12.238;2023-03-14T12:02:26;14.40;93.50
38788;DHT22;24536;45.488;12.238;2023-03-14T12:10:23;14.20;93.70
38788;DHT22;24536;45.488;12.238;2023-03-14T12:12:48;14.10;93.90
38788;DHT22;24536;45.488;12.238;2023-03-14T12:15:21;14.20;93.80
38788;DHT22;24536;45.488;12.238;2023-03-14T12:17:54;14.30;93.70
38788;DHT22;24536;45.488;12.238;2023-03-14T12:20:21;14.40;93.70
38788;DHT22;24536;45.488;12.238;2023-03-14T12:22:56;14.50;93.70
38788;DHT22;24536;45.488;12.238;2023-03-14T12:25:30;14.50;93.70
38788;DHT22;24536;45.488;12.238;2023-03-14T12:30:29;14.60;93.90
38788;DHT22;24536;45.488;12.238;2023-03-14T12:33:20;14.70;94.00
38788;DHT22;24536;45.488;12.238;2023-03-14T12:35:46;14.70;94.20
38788;DHT22;24536;45.488;12.238;2023-03-14T12:43:46;14.80;94.20
38788;DHT22;24536;45.488;12.238;2023-03-14T12:48:44;15.00;94.10
38788;DHT22;24536;45.488;12.238;2023-03-14T12:51:19;15.00;94.20
38788;DHT22;24536;45.488;12.238;2023-03-14T13:04:32;15.20;94.00
38788;DHT22;24536;45.488;12.238;2023-03-14T13:07:00;15.20;94.20
38788;DHT22;24536;45.488;12.238;2023-03-14T13:12:22;15.30;94.10
38788;DHT22;24536;45.488;12.238;2023-03-14T13:14:49;15.40;93.80
38788;DHT22;24536;45.488;12.238;2023-03-14T13:17:33;15.40;93.90
38788;DHT22;24536;45.488;12.238;2023-03-14T13:20:18;15.40;93.90
38788;DHT22;24536;45.488;12.238;2023-03-14T13:22:47;15.40;93.90
38788;DHT22;24536;45.488;12.238;2023-03-14T13:25:13;15.40;93.70
38788;DHT22;24536;45.488;12.238;2023-03-14T13:27:40;15.40;93.50
38788;DHT22;24536;45.488;12.238;2023-03-14T13:30:17;15.40;93.70
38788;DHT22;24536;45.488;12.238;2023-03-14T13:32:44;15.40;93.60
38788;DHT22;24536;45.488;12.238;2023-03-14T13:35:25;15.40;93.60
38788;DHT22;24536;45.488;12.238;2023-03-14T13:37:59;15.40;93.60
38788;DHT22;24536;45.488;12.238;2023-03-14T13:40:30;15.40;93.40
38788;DHT22;24536;45.488;12.238;2023-03-14T13:43:02;15.40;93.60
38788;DHT22;24536;45.488;12.238;2023-03-14T13:45:28;15.50;93.60
38788;DHT22;24536;45.488;12.238;2023-03-14T13:47:54;15.60;93.50
38788;DHT22;24536;45.488;12.238;2023-03-14T13:50:19;15.70;93.30
38788;DHT22;24536;45.488;12.238;2023-03-14T13:52:45;15.80;93.40
38788;DHT22;24536;45.488;12.238;2023-03-14T13:55:16;15.90;93.10
38788;DHT22;24536;45.488;12.238;2023-03-14T13:57:45;16.10;93.40
38788;DHT22;24536;45.488;12.238;2023-03-14T14:00:20;16.30;93.20
38788;DHT22;24536;45.488;12.238;2023-03-14T14:02:46;16.40;92.70
38788;DHT22;24536;45.488;12.238;2023-03-14T14:05:18;16.50;92.60
38788;DHT22;24536;45.488;12.238;2023-03-14T14:07:44;16.50;92.20
38788;DHT22;24536;45.488;12.238;2023-03-14T14:10:12;16.60;92.00
38788;DHT22;24536;45.488;12.238;2023-03-14T14:13:01;16.70;92.00
38788;DHT22;24536;45.488;12.238;2023-03-14T14:15:30;16.70;91.70
38788;DHT22;24536;45.488;12.238;2023-03-14T14:18:00;16.80;91.80
38788;DHT22;24536;45.488;12.238;2023-03-14T14:20:40;16.90;91.60
38788;DHT22;24536;45.488;12.238;2023-03-14T14:23:19;17.00;91.70
38788;DHT22;24536;45.488;12.238;2023-03-14T14:25:51;17.00;91.40
38788;DHT22;24536;45.488;12.238;2023-03-14T14:28:26;16.90;91.30
38788;DHT22;24536;45.488;12.238;2023-03-14T14:34:17;16.70;91.20
38788;DHT22;24536;45.488;12.238;2023-03-14T14:36:44;16.70;91.40
38788;DHT22;24536;45.488;12.238;2023-03-14T14:39:26;16.70;91.40
38788;DHT22;24536;45.488;12.238;2023-03-14T14:41:54;16.60;91.40
38788;DHT22;24536;45.488;12.238;2023-03-14T14:44:46;16.60;91.50
38788;DHT22;24536;45.488;12.238;2023-03-14T14:47:13;16.60;91.40
38788;DHT22;24536;45.488;12.238;2023-03-14T14:49:39;16.50;91.50
38788;DHT22;24536;45.488;12.238;2023-03-14T14:52:16;16.50;91.50
38788;DHT22;24536;45.488;12.238;2023-03-14T14:54:45;16.40;91.60
38788;DHT22;24536;45.488;12.238;2023-03-14T14:57:20;16.40;91.70
38788;DHT22;24536;45.488;12.238;2023-03-14T14:59:49;16.40;91.70
38788;DHT22;24536;45.488;12.238;2023-03-14T15:02:37;16.30;91.50
38788;DHT22;24536;45.488;12.238;2023-03-14T15:05:17;16.30;91.70
38788;DHT22;24536;45.488;12.238;2023-03-14T15:07:43;16.30;91.90
38788;DHT22;24536;45.488;12.238;2023-03-14T15:10:11;16.30;92.00
38788;DHT22;24536;45.488;12.238;2023-03-14T15:12:37;16.30;92.10
38788;DHT22;24536;45.488;12.238;2023-03-14T15:15:02;16.30;92.20
38788;DHT22;24536;45.488;12.238;2023-03-14T15:17:28;16.20;92.00
38788;DHT22;24536;45.488;12.238;2023-03-14T15:19:54;16.30;92.30
38788;DHT22;24536;45.488;12.238;2023-03-14T15:22:21;16.20;92.30
38788;DHT22;24536;45.488;12.238;2023-03-14T15:24:47;16.20;92.20
38788;DHT22;24536;45.488;12.238;2023-03-14T15:27:13;16.30;92.30
38788;DHT22;24536;45.488;12.238;2023-03-14T15:29:40;16.20;92.20
38788;DHT22;24536;45.488;12.238;2023-03-14T15:32:13;16.30;92.30
38788;DHT22;24536;45.488;12.238;2023-03-14T15:34:39;16.30;92.30
38788;DHT22;24536;45.488;12.238;2023-03-14T15:37:12;16.30;92.30
38788;DHT22;24536;45.488;12.238;2023-03-14T15:39:38;16.30;92.30
38788;DHT22;24536;45.488;12.238;2023-03-14T15:42:04;16.30;92.30
38788;DHT22;24536;45.488;12.238;2023-03-14T15:44:30;16.30;92.20
38788;DHT22;24536;45.488;12.238;2023-03-14T15:46:56;16.20;91.90
38788;DHT22;24536;45.488;12.238;2023-03-14T15:49:21;16.30;92.10
38788;DHT22;24536;45.488;12.238;2023-03-14T15:51:47;16.20;92.00
38788;DHT22;24536;45.488;12.238;2023-03-14T15:54:12;16.20;92.10
38788;DHT22;24536;45.488;12.238;2023-03-14T15:56:38;16.20;92.00
38788;DHT22;24536;45.488;12.238;2023-03-14T15:59:04;16.10;91.90
38788;DHT22;24536;45.488;12.238;2023-03-14T16:01:29;16.10;92.00
38788;DHT22;24536;45.488;12.238;2023-03-14T16:03:55;16.10;92.10
38788;DHT22;24536;45.488;12.238;2023-03-14T16:06:21;16.10;92.10
38788;DHT22;24536;45.488;12.238;2023-03-14T16:08:47;16.10;92.00
38788;DHT22;24536;45.488;12.238;2023-03-14T16:11:14;16.00;92.10
38788;DHT22;24536;45.488;12.238;2023-03-14T16:13:40;16.00;92.10
38788;DHT22;24536;45.488;12.238;2023-03-14T16:16:07;16.00;92.10
38788;DHT22;24536;45.488;12.238;2023-03-14T16:18:35;16.00;92.10
38788;DHT22;24536;45.488;12.238;2023-03-14T16:21:04;16.00;92.00
38788;DHT22;24536;45.488;12.238;2023-03-14T16:23:34;16.00;92.10
38788;DHT22;24536;45.488;12.238;2023-03-14T16:26:03;15.90;92.10
38788;DHT22;24536;45.488;12.238;2023-03-14T16:31:13;15.90;92.20
38788;DHT22;24536;45.488;12.238;2023-03-14T16:33:40;15.80;92.20